PAGINA EN CONSTRUCCIÓN

DISCULPEN POSIBLES FALLOS



Daganzo more information Daganzo


Meteosat more information blitzortung!


Radar lluvias  rain snow radar


Visita nuestra red de sitios de meteo:

Documentation for the template used

MeteoibericaRed estaciones Meteorologicas



Sin Advertencias climatologicas .En este momento tenemos Nivel Verde.    No hay Alarmas

Informes METAR proximidad

   
LEMD - Madrid/Barajas
Actualización: 20-06-2018 18:30
Nubes dispersas  
Nubes dispersas  
   Viento: varía 3.7 km/h
Viento: varía 3.7 km/h
Temperatura: 33°C
Punto de rocío: 11°C
Humedad: 26%
Baromètro: 1016 hPa
Nublado: Nubes dispersas
Visibilidad: More than 10 km
detalles de la nube: Nubes dispersas 5000 ft
LEMD 201830Z VRB02KT 9999 FEW050CB 33/11 Q1016 NOSIG
LEBL - Barcelona/El Prat
Actualización: 20-06-2018 18:30
Despejado  
Despejado  
   Viento: SSE 7.4 km/h
Viento: SSE 7.4 km/h
Temperatura: 25°C
Punto de rocío: 19°C
Humedad: 69%
Baromètro: 1018 hPa
Visibilidad: More than 10 km
detalles de la nube: Despejado
LEBL 201830Z 15004KT CAVOK 25/19 Q1018 NOSIG
LEVC - Valencia
Actualización: 20-06-2018 18:30
Despejado  
Despejado  
   Viento: SE 13 km/h
Viento: SE 13 km/h
Temperatura: 26°C
Punto de rocío: 16°C
Humedad: 54%
Baromètro: 1018 hPa
Visibilidad: More than 10 km
detalles de la nube: Despejado
LEVC 201830Z 14007KT CAVOK 26/16 Q1018 NOSIG
LETO - Madrid/Torrejon
Actualización: 20-06-2018 18:00
Nubes dispersas  
Nubes dispersas  
   Viento: varía 3.7 km/h
Viento: varía 3.7 km/h
Temperatura: 33°C
Punto de rocío: 10°C
Humedad: 24%
Baromètro: 1016 hPa
Nublado: Nubes dispersas
Visibilidad: More than 10 km
detalles de la nube: Nubes dispersas 6800 ft
LETO 201800Z VRB02KT 9999 FEW068 33/10 Q1016 NOSIG
LEVS - Madrid/Cuatro Vientos
Actualización: 20-06-2018 18:30
Nubes dispersas  
Nubes dispersas  
   Viento: E 7.4 km/h
Viento: E 7.4 km/h
Temperatura: 32°C
Punto de rocío: 10°C
Humedad: 26%
Baromètro: 1017 hPa
Nublado: Nubes dispersas
Visibilidad: More than 10 km
detalles de la nube: Nubes dispersas 5500 ft
LEVS 201830Z 09004KT 060V140 9999 FEW055 32/10 Q1017
LEGT - Madrid/Getafe
Actualización: 20-06-2018 18:19
Parcialmente Nublado  
Parcialmente Nublado  
   Viento: E 7.4 km/h
Viento: E 7.4 km/h
Temperatura: 32°C
Punto de rocío: 11°C
Humedad: 27%
Baromètro: 1016 hPa
Nublado: Parcialmente Nublado
Visibilidad: More than 10 km
detalles de la nube: Nubes dispersas 4500 ft,
Parcialmente Nublado 5500 ft
LEGT 201819Z 10004KT 9999 FEW045CB SCT055 32/11 Q1016
LEVD - Valladolid
Actualización: 20-06-2018 18:30
Parcialmente Nublado  
Parcialmente Nublado  
   Viento: ENE 9.3 km/h
Viento: ENE 9.3 km/h
Temperatura: 26°C
Punto de rocío: 14°C
Humedad: 48%
Baromètro: 1018 hPa
Nublado: Parcialmente Nublado
Visibilidad: More than 10 km
detalles de la nube: Parcialmente Nublado 3000 ft
LEVD 201830Z 07005KT 9999 SCT030CB 26/14 Q1018
LEZG - Zaragoza
Actualización: 20-06-2018 18:30
Despejado  
Despejado  
   Viento: E 14.8 km/h
Viento: E 14.8 km/h
Temperatura: 32°C
Punto de rocío: 10°C
Humedad: 26%
Baromètro: 1016 hPa
Visibilidad: More than 10 km
detalles de la nube: Despejado
LEZG 201830Z 10008KT CAVOK 32/10 Q1016
LEVT - Vitoria
Actualización: 20-06-2018 18:30
Nubes dispersas  
Nubes dispersas  
   Viento: NNE 16.7 km/h
Viento: NNE 16.7 km/h
Temperatura: 25°C
Punto de rocío: 19°C
Humedad: 69%
Baromètro: 1019 hPa
Nublado: Nubes dispersas
Visibilidad: More than 10 km
detalles de la nube: Nubes dispersas 4500 ft
LEVT 201830Z 03009KT 360V060 9999 FEW045CB 25/19 Q1019
LELN - Leon/Virgen del Camino
Actualización: 20-06-2018 18:00
Nubes dispersas  
Nubes dispersas  
   Viento: WSW 16.7 km/h
Viento: WSW 16.7 km/h
Temperatura: 26°C
Punto de rocío: 12°C
Humedad: 42%
Baromètro: 1019 hPa
Nublado: Nubes dispersas
Visibilidad: More than 10 km
detalles de la nube: Nubes dispersas 4000 ft,
Nubes dispersas 4500 ft
LELN 201800Z 25009KT 220V300 9999 FEW040 FEW045TCU 26/12 Q1019
LEPP - Pamplona/Noain
Actualización: 20-06-2018 18:30
Despejado  
Despejado  
   Viento: E 5.6 km/h
Viento: E 5.6 km/h
Temperatura: 30°C
Índice de calor: 30°C
Punto de rocío: 16°C
Humedad: 43%
Baromètro: 1018 hPa
Visibilidad: More than 10 km
detalles de la nube: Despejado
LEPP 201830Z 08003KT 040V110 CAVOK 30/16 Q1018
LEBB - Bilbao/Sondica
Actualización: 20-06-2018 18:30
Parcialmente nublado  
Parcialmente nublado  
   Viento: N 9.3 km/h
Viento: N 9.3 km/h
Temperatura: 21°C
Punto de rocío: 19°C
Humedad: 88%
Baromètro: 1019 hPa
Nublado: Parcialmente nublado
Visibilidad: More than 10 km
detalles de la nube: Nubes dispersas 1200 ft,
Parcialmente nublado 1600 ft
LEBB 201830Z 36005KT 320V030 9999 FEW012 BKN016 21/19 Q1019 TEMPO BKN014

Guión original por  Saratoga-weather.org Adaptado para la plantilla por  Weerstation Leuven

Usted encontrará nuestra información del tiempo también en:

WeatherCloud

Weather Underground

Iberian Peninsula Weather Network

AWEKAS

Citizen Weather Observer Program (CWOP)